createdAt,value
2022-08-19T00:02:01.329Z,12.30
2022-08-19T00:04:35.880Z,11.98
2022-08-19T00:07:05.207Z,12.60
2022-08-19T00:09:31.924Z,13.55
2022-08-19T00:11:59.211Z,13.13
2022-08-19T00:14:27.520Z,12.43
2022-08-19T00:16:55.406Z,12.80
2022-08-19T00:19:23.432Z,13.18
2022-08-19T00:21:50.536Z,13.27
2022-08-19T00:24:17.329Z,13.05
2022-08-19T00:26:46.145Z,12.82
2022-08-19T00:29:15.267Z,14.27
2022-08-19T00:31:43.984Z,12.93
2022-08-19T00:34:12.815Z,13.20
2022-08-19T00:36:40.319Z,13.43
2022-08-19T00:39:07.729Z,12.63
2022-08-19T00:41:34.622Z,12.90
2022-08-19T00:44:09.503Z,12.25
2022-08-19T00:46:39.061Z,13.07
2022-08-19T00:49:35.475Z,12.63
2022-08-19T00:52:15.838Z,12.90
2022-08-19T00:54:43.872Z,12.37
2022-08-19T00:57:15.726Z,13.10
2022-08-19T00:59:56.152Z,12.60
2022-08-19T01:02:30.650Z,13.03
2022-08-19T01:04:57.665Z,13.20
2022-08-19T01:07:24.522Z,12.77
2022-08-19T01:09:51.823Z,13.55
2022-08-19T01:12:19.095Z,13.90
2022-08-19T01:14:47.624Z,13.38
2022-08-19T01:17:15.997Z,12.87
2022-08-19T01:19:47.708Z,12.50
2022-08-19T01:22:43.841Z,12.97
2022-08-19T01:25:15.137Z,13.97
2022-08-19T01:27:45.525Z,13.43
2022-08-19T01:30:27.753Z,13.20
2022-08-19T01:32:55.966Z,13.17
2022-08-19T01:35:25.618Z,12.70
2022-08-19T01:38:00.182Z,13.37
2022-08-19T01:40:34.070Z,12.60
2022-08-19T01:43:02.043Z,14.43
2022-08-19T01:45:31.350Z,13.57
2022-08-19T01:48:01.673Z,14.13
2022-08-19T01:50:30.733Z,14.48
2022-08-19T01:53:02.410Z,14.13
2022-08-19T01:55:34.688Z,13.07
2022-08-19T01:58:06.088Z,14.90
2022-08-19T02:00:33.623Z,14.73
2022-08-19T02:03:01.979Z,14.57
2022-08-19T02:05:30.133Z,14.67
2022-08-19T02:07:58.278Z,15.23
2022-08-19T02:10:25.127Z,15.43
2022-08-19T02:12:52.080Z,15.63
2022-08-19T02:15:20.584Z,15.33
2022-08-19T02:17:48.084Z,15.75
2022-08-19T02:20:16.029Z,15.53
2022-08-19T02:22:43.386Z,14.97
2022-08-19T02:25:12.416Z,16.40
2022-08-19T02:27:40.872Z,16.13
2022-08-19T02:30:13.975Z,16.87
2022-08-19T02:32:44.444Z,16.20
2022-08-19T02:35:22.231Z,17.67
2022-08-19T02:38:07.899Z,17.80
2022-08-19T02:40:36.041Z,17.90
2022-08-19T02:43:06.805Z,17.83
2022-08-19T02:45:41.449Z,18.43
2022-08-19T02:48:17.889Z,19.17
2022-08-19T02:50:55.668Z,18.47
2022-08-19T02:53:26.153Z,18.40
2022-08-19T02:55:53.227Z,18.50
2022-08-19T02:58:22.233Z,19.43
2022-08-19T03:00:56.557Z,19.40
2022-08-19T03:03:24.422Z,18.53
2022-08-19T03:05:56.948Z,17.73
2022-08-19T03:08:25.135Z,18.60
2022-08-19T03:10:53.033Z,18.47
2022-08-19T03:13:19.814Z,18.83
2022-08-19T03:15:48.359Z,18.30
2022-08-19T03:18:15.562Z,18.73
2022-08-19T03:20:50.737Z,18.77
2022-08-19T03:23:17.798Z,17.40
2022-08-19T03:26:03.183Z,18.87
2022-08-19T03:28:34.959Z,18.17
2022-08-19T03:31:41.806Z,18.77
2022-08-19T03:33:55.373Z,18.37
2022-08-19T03:36:24.776Z,18.93
2022-08-19T03:38:59.500Z,18.07
2022-08-19T03:41:34.181Z,17.80
2022-08-19T03:44:16.672Z,19.77
2022-08-19T03:46:46.300Z,19.87
2022-08-19T03:49:14.001Z,20.27
2022-08-19T03:51:43.318Z,19.00
2022-08-19T03:54:13.799Z,18.37
2022-08-19T03:56:41.957Z,19.10
2022-08-19T03:59:14.429Z,19.60
2022-08-19T04:01:41.963Z,18.90
2022-08-19T04:04:09.265Z,19.20
2022-08-19T04:06:39.833Z,19.87
2022-08-19T04:09:10.995Z,19.53
2022-08-19T04:11:44.496Z,20.47
2022-08-19T04:14:17.963Z,20.63
2022-08-19T04:16:45.491Z,19.17
2022-08-19T04:19:12.321Z,18.10
2022-08-19T04:21:39.078Z,20.00
2022-08-19T04:24:06.486Z,19.87
2022-08-19T04:26:37.261Z,18.97
2022-08-19T04:29:15.231Z,19.20
2022-08-19T04:31:44.318Z,18.43
2022-08-19T04:34:12.853Z,19.03
2022-08-19T04:36:42.185Z,18.13
2022-08-19T04:39:11.492Z,18.83
2022-08-19T04:41:57.066Z,18.97
2022-08-19T04:44:23.768Z,18.53
2022-08-19T04:46:52.201Z,18.20
2022-08-19T04:49:23.802Z,18.23
2022-08-19T04:54:37.120Z,19.83
2022-08-19T04:57:09.432Z,19.50
2022-08-19T04:59:37.712Z,19.37
2022-08-19T05:02:05.631Z,19.43
2022-08-19T05:04:33.668Z,18.63
2022-08-19T05:07:01.926Z,20.13
2022-08-19T05:09:39.053Z,19.33
2022-08-19T05:12:18.480Z,18.23
2022-08-19T05:14:46.501Z,17.90
2022-08-19T05:17:32.280Z,20.53
2022-08-19T05:20:19.897Z,18.80
2022-08-19T05:22:48.388Z,19.33
2022-08-19T05:25:20.430Z,21.27
2022-08-19T05:27:48.002Z,22.30
2022-08-19T05:30:15.497Z,20.80
2022-08-19T05:32:42.653Z,24.50
2022-08-19T05:35:10.469Z,26.30
2022-08-19T05:37:37.248Z,24.23
2022-08-19T05:40:04.950Z,27.75
2022-08-19T05:42:31.843Z,27.90
2022-08-19T05:44:58.794Z,28.53
2022-08-19T05:47:25.534Z,30.77
2022-08-19T05:49:52.720Z,34.13
2022-08-19T05:52:26.134Z,35.30
2022-08-19T05:54:56.547Z,34.63
2022-08-19T05:57:25.154Z,36.33
2022-08-19T05:59:57.641Z,37.20
2022-08-19T06:02:25.877Z,34.27
2022-08-19T06:04:53.090Z,32.70
2022-08-19T06:07:20.351Z,32.42
2022-08-19T06:09:54.441Z,30.75
2022-08-19T06:12:35.439Z,33.42
2022-08-19T06:15:06.961Z,29.95
2022-08-19T06:17:35.681Z,29.07
2022-08-19T06:20:07.832Z,29.70
2022-08-19T06:22:39.522Z,28.63
2022-08-19T06:25:06.807Z,27.80
2022-08-19T06:27:34.469Z,27.10
2022-08-19T06:30:01.740Z,25.43
2022-08-19T06:32:28.652Z,26.98
2022-08-19T06:34:55.845Z,26.30
2022-08-19T06:37:23.200Z,25.75
2022-08-19T06:39:50.202Z,24.98
2022-08-19T06:42:19.544Z,23.38
2022-08-19T06:44:50.285Z,24.70
2022-08-19T06:47:23.803Z,25.40
2022-08-19T06:50:00.967Z,24.90
2022-08-19T06:52:28.597Z,24.95
2022-08-19T06:54:56.984Z,25.17
2022-08-19T06:57:27.689Z,25.77
2022-08-19T06:59:55.926Z,24.20
2022-08-19T07:02:27.119Z,23.65
2022-08-19T07:04:54.463Z,25.02
2022-08-19T07:07:23.143Z,23.60
2022-08-19T07:09:58.002Z,24.25
2022-08-19T07:12:32.236Z,23.83
2022-08-19T07:14:59.111Z,24.25
2022-08-19T07:17:26.812Z,24.02
2022-08-19T07:19:54.791Z,22.92
2022-08-19T07:22:24.264Z,22.25
2022-08-19T07:24:52.217Z,23.05
2022-08-19T07:27:25.132Z,21.95
2022-08-19T07:29:55.913Z,20.33
2022-08-19T07:32:27.584Z,23.88
2022-08-19T07:34:55.017Z,20.98
2022-08-19T07:37:26.468Z,20.40
2022-08-19T07:39:55.410Z,21.15
2022-08-19T07:42:22.235Z,21.98
2022-08-19T07:44:50.699Z,20.02
2022-08-19T07:47:47.447Z,19.88
2022-08-19T07:50:09.414Z,17.13
2022-08-19T07:52:39.536Z,21.95
2022-08-19T07:55:11.459Z,21.02
2022-08-19T07:57:56.205Z,21.52
2022-08-19T08:00:24.636Z,22.90
2022-08-19T08:02:52.949Z,21.20
2022-08-19T08:05:43.642Z,22.75
2022-08-19T08:08:30.591Z,20.27
2022-08-19T08:10:57.784Z,23.67
2022-08-19T08:13:26.449Z,24.75
2022-08-19T08:15:56.150Z,23.73
2022-08-19T08:18:27.591Z,25.23
2022-08-19T08:20:58.137Z,25.67
2022-08-19T08:23:29.514Z,24.80
2022-08-19T08:25:59.072Z,23.75
2022-08-19T08:28:29.838Z,25.10
2022-08-19T08:30:58.387Z,25.83
2022-08-19T08:33:32.800Z,25.38
2022-08-19T08:36:11.792Z,28.90
2022-08-19T08:38:40.585Z,26.33
2022-08-19T08:41:14.390Z,28.00
2022-08-19T08:43:44.532Z,26.52
2022-08-19T08:46:31.322Z,25.75
2022-08-19T08:49:02.261Z,24.67
2022-08-19T08:51:35.383Z,30.20
2022-08-19T08:54:07.706Z,25.40
2022-08-19T08:56:39.899Z,27.05
2022-08-19T08:59:20.296Z,28.30
2022-08-19T09:01:47.207Z,28.42
2022-08-19T09:04:14.671Z,28.60
2022-08-19T09:06:47.253Z,29.83
2022-08-19T09:09:20.943Z,27.75
2022-08-19T09:12:03.767Z,27.15
2022-08-19T09:14:59.748Z,26.42
2022-08-19T09:17:34.662Z,26.77
2022-08-19T09:20:11.976Z,27.67
2022-08-19T09:22:44.932Z,26.70
2022-08-19T09:25:16.390Z,26.17
2022-08-19T09:27:44.600Z,24.10
2022-08-19T09:30:19.223Z,29.05
2022-08-19T09:32:46.672Z,24.60
2022-08-19T09:35:14.367Z,20.40
2022-08-19T09:37:43.683Z,19.50
2022-08-19T09:40:12.286Z,19.70
2022-08-19T09:42:49.673Z,18.98
2022-08-19T09:45:21.853Z,22.30
2022-08-19T09:47:54.213Z,22.77
2022-08-19T09:50:22.427Z,21.92
2022-08-19T09:52:55.623Z,21.23
2022-08-19T09:55:31.726Z,17.38
2022-08-19T09:58:01.675Z,16.50
2022-08-19T10:00:28.605Z,14.25
2022-08-19T10:02:55.734Z,16.33
2022-08-19T10:05:42.199Z,14.45
2022-08-19T10:08:13.502Z,15.85
2022-08-19T10:10:47.027Z,16.15
2022-08-19T10:13:18.120Z,14.07
2022-08-19T10:15:48.117Z,14.55
2022-08-19T10:18:19.272Z,12.70
2022-08-19T10:20:51.696Z,13.63
2022-08-19T10:23:21.450Z,12.55
2022-08-19T10:25:48.933Z,9.65
2022-08-19T10:28:16.034Z,12.55
2022-08-19T10:30:42.914Z,10.15
2022-08-19T10:33:11.048Z,11.25
2022-08-19T10:35:56.613Z,9.10
2022-08-19T10:38:31.330Z,12.80
2022-08-19T10:40:59.530Z,13.35
2022-08-19T10:43:26.311Z,13.73
2022-08-19T10:45:56.566Z,15.10
2022-08-19T10:48:23.330Z,14.23
2022-08-19T10:51:08.862Z,13.32
2022-08-19T10:53:35.640Z,13.55
2022-08-19T10:56:21.770Z,12.23
2022-08-19T10:58:49.343Z,12.25
2022-08-19T11:01:16.136Z,12.75
2022-08-19T11:03:42.967Z,14.93
2022-08-19T11:06:09.945Z,13.13
2022-08-19T11:08:41.709Z,13.50
2022-08-19T11:11:09.992Z,12.50
2022-08-19T11:13:39.754Z,11.98
2022-08-19T11:16:14.830Z,12.65
2022-08-19T11:18:48.576Z,14.10
2022-08-19T11:21:33.226Z,14.90
2022-08-19T11:24:02.987Z,15.55
2022-08-19T11:26:31.663Z,13.88
2022-08-19T11:28:59.948Z,16.85
2022-08-19T11:31:31.644Z,13.20
2022-08-19T11:34:00.640Z,11.80
2022-08-19T11:36:28.069Z,13.02
2022-08-19T11:38:55.620Z,12.18
2022-08-19T11:41:24.370Z,12.35
2022-08-19T11:43:53.860Z,13.82
2022-08-19T11:46:20.996Z,11.90
2022-08-19T11:48:48.992Z,13.68
2022-08-19T11:51:19.935Z,11.52
2022-08-19T11:53:47.200Z,11.88
2022-08-19T11:56:14.290Z,12.13
2022-08-19T11:58:44.576Z,12.45
2022-08-19T12:01:17.028Z,12.35
2022-08-19T12:03:45.920Z,11.38
2022-08-19T12:06:17.729Z,10.75
2022-08-19T12:08:45.586Z,10.43
2022-08-19T12:11:14.634Z,10.70
2022-08-19T12:13:45.256Z,9.73
2022-08-19T12:16:15.919Z,11.80
2022-08-19T12:18:46.182Z,9.80
2022-08-19T12:21:17.744Z,9.63
2022-08-19T12:23:46.343Z,9.77
2022-08-19T12:26:13.517Z,10.65
2022-08-19T12:28:40.515Z,9.32
2022-08-19T12:31:07.318Z,10.68
2022-08-19T12:33:34.248Z,10.75
2022-08-19T12:36:04.046Z,10.45
2022-08-19T12:38:30.974Z,8.77
2022-08-19T12:41:00.272Z,8.93
2022-08-19T12:43:27.994Z,8.80
2022-08-19T12:45:54.734Z,8.85
2022-08-19T12:48:34.566Z,7.70
2022-08-19T12:51:10.275Z,8.52
2022-08-19T12:53:39.159Z,9.13
2022-08-19T12:56:07.636Z,6.90
2022-08-19T12:58:39.529Z,7.30
2022-08-19T13:01:14.961Z,7.70
2022-08-19T13:03:46.792Z,7.88
2022-08-19T13:06:14.700Z,8.23
2022-08-19T13:08:46.530Z,8.48
2022-08-19T13:11:18.373Z,8.02
2022-08-19T13:13:48.326Z,9.23
2022-08-19T13:16:15.615Z,8.57
2022-08-19T13:18:44.480Z,8.73
2022-08-19T13:21:15.142Z,8.85
2022-08-19T13:23:42.817Z,10.25
2022-08-19T13:26:11.088Z,9.57
2022-08-19T13:28:56.823Z,10.13
2022-08-19T13:31:45.176Z,9.13
2022-08-19T13:34:12.181Z,8.20
2022-08-19T13:36:39.473Z,7.60
2022-08-19T13:39:08.570Z,7.65
2022-08-19T13:41:35.889Z,7.40
2022-08-19T13:44:03.203Z,8.35
2022-08-19T13:46:30.130Z,7.15
2022-08-19T13:48:57.761Z,6.90
2022-08-19T13:51:24.697Z,6.47
2022-08-19T13:53:51.625Z,5.93
2022-08-19T13:56:24.177Z,5.93
2022-08-19T13:58:53.961Z,5.93
2022-08-19T14:01:25.682Z,5.47
2022-08-19T14:03:52.858Z,5.63
2022-08-19T14:06:20.736Z,5.20
2022-08-19T14:08:47.797Z,5.32
2022-08-19T14:11:15.060Z,5.95
2022-08-19T14:13:41.961Z,5.38
2022-08-19T14:16:13.739Z,5.70
2022-08-19T14:18:41.092Z,5.88
2022-08-19T14:21:08.516Z,6.00
2022-08-19T14:23:36.977Z,6.00
2022-08-19T14:26:13.412Z,5.68
2022-08-19T14:28:42.638Z,5.53
2022-08-19T14:31:13.976Z,5.50
2022-08-19T14:33:41.430Z,5.20
2022-08-19T14:36:08.350Z,5.53
2022-08-19T14:38:35.431Z,5.47
2022-08-19T14:41:22.685Z,4.93
2022-08-19T14:43:51.842Z,6.03
2022-08-19T14:46:21.876Z,6.10
2022-08-19T14:48:51.677Z,6.60
2022-08-19T14:51:20.471Z,5.30
2022-08-19T14:53:49.694Z,4.95
2022-08-19T14:56:22.710Z,4.55
2022-08-19T14:58:53.183Z,4.22
2022-08-19T15:01:22.085Z,4.68
2022-08-19T15:03:49.958Z,4.50
2022-08-19T15:06:17.266Z,3.83
2022-08-19T15:08:45.777Z,4.30
2022-08-19T15:11:15.863Z,4.38
2022-08-19T15:13:43.630Z,4.10
2022-08-19T15:16:17.687Z,4.00
2022-08-19T15:18:46.129Z,3.72
2022-08-19T15:21:26.792Z,3.55
2022-08-19T15:23:57.137Z,3.75
2022-08-19T15:26:24.088Z,4.00
2022-08-19T15:28:50.855Z,3.95
2022-08-19T15:31:28.336Z,3.90
2022-08-19T15:34:00.430Z,3.88
2022-08-19T15:36:28.249Z,3.58
2022-08-19T15:38:56.279Z,3.53
2022-08-19T15:41:26.537Z,4.05
2022-08-19T15:44:14.499Z,3.55
2022-08-19T15:46:44.845Z,4.20
2022-08-19T15:49:14.656Z,6.13
2022-08-19T15:51:45.251Z,4.93
2022-08-19T15:54:14.957Z,4.50
2022-08-19T15:57:00.112Z,3.75
2022-08-19T15:59:50.594Z,4.10
2022-08-19T16:02:37.872Z,3.20
2022-08-19T16:05:27.056Z,3.40
2022-08-19T16:07:54.629Z,3.90
2022-08-19T16:10:26.104Z,3.35
2022-08-19T16:12:53.815Z,3.42
2022-08-19T16:15:20.998Z,3.95
2022-08-19T16:17:56.820Z,3.88
2022-08-19T16:20:26.310Z,3.42
2022-08-19T16:22:54.035Z,3.60
2022-08-19T16:25:22.677Z,4.00
2022-08-19T16:28:06.670Z,3.78
2022-08-19T16:30:37.096Z,3.17
2022-08-19T16:33:03.930Z,3.17
2022-08-19T16:35:30.711Z,2.97
2022-08-19T16:37:57.513Z,3.00
2022-08-19T16:40:25.237Z,3.67
2022-08-19T16:42:53.624Z,3.22
2022-08-19T16:45:22.034Z,3.33
2022-08-19T16:47:48.854Z,3.20
2022-08-19T16:50:21.966Z,2.67
2022-08-19T16:55:34.145Z,3.00
2022-08-19T16:58:04.894Z,2.88
2022-08-19T17:00:32.207Z,2.97
2022-08-19T17:03:06.397Z,2.97
2022-08-19T17:05:33.219Z,3.17
2022-08-19T17:07:59.910Z,3.45
2022-08-19T17:10:26.831Z,3.10
2022-08-19T17:12:54.829Z,3.30
2022-08-19T17:15:21.669Z,2.70
2022-08-19T17:17:48.393Z,2.90
2022-08-19T17:20:15.569Z,2.90
2022-08-19T17:22:42.739Z,4.00
2022-08-19T17:25:09.677Z,6.20
2022-08-19T17:27:37.568Z,4.70
2022-08-19T17:30:06.700Z,3.30
2022-08-19T17:32:35.177Z,3.72
2022-08-19T17:35:04.041Z,3.78
2022-08-19T17:37:30.876Z,5.45
2022-08-19T17:39:58.248Z,3.55
2022-08-19T17:42:25.073Z,2.72
2022-08-19T17:44:52.234Z,2.88
2022-08-19T17:47:19.579Z,2.63
2022-08-19T17:49:46.578Z,2.65
2022-08-19T17:52:13.406Z,4.45
2022-08-19T17:54:40.562Z,3.80
2022-08-19T17:57:07.258Z,4.10
2022-08-19T17:59:34.422Z,3.03
2022-08-19T18:02:01.627Z,3.00
2022-08-19T18:04:29.793Z,2.75
2022-08-19T18:06:57.464Z,3.38
2022-08-19T18:09:41.153Z,3.88
2022-08-19T18:12:12.904Z,3.60
2022-08-19T18:14:41.321Z,2.65
2022-08-19T18:17:14.158Z,2.97
2022-08-19T18:19:43.617Z,3.00
2022-08-19T18:22:25.287Z,2.90
2022-08-19T18:24:52.524Z,2.80
2022-08-19T18:27:19.580Z,2.83
2022-08-19T18:29:47.145Z,3.05
2022-08-19T18:32:17.184Z,3.20
2022-08-19T18:34:49.834Z,3.20
2022-08-19T18:37:16.997Z,2.80
2022-08-19T18:40:02.488Z,2.85
2022-08-19T18:42:47.730Z,3.13
2022-08-19T18:45:33.167Z,6.38
2022-08-19T18:48:27.783Z,4.47
2022-08-19T18:50:59.748Z,3.95
2022-08-19T18:53:29.133Z,3.33
2022-08-19T18:55:57.097Z,3.05
2022-08-19T18:58:32.184Z,3.22
2022-08-19T19:01:20.151Z,6.75
2022-08-19T19:03:53.405Z,6.38
2022-08-19T19:06:28.568Z,5.20
2022-08-19T19:08:55.943Z,4.38
2022-08-19T19:11:36.207Z,4.40
2022-08-19T19:14:05.593Z,3.85
2022-08-19T19:16:32.814Z,3.50
2022-08-19T19:19:00.196Z,3.42
2022-08-19T19:21:27.879Z,3.17
2022-08-19T19:23:56.702Z,2.65
2022-08-19T19:26:23.986Z,3.50
2022-08-19T19:28:51.410Z,3.22
2022-08-19T19:31:23.840Z,2.67
2022-08-19T19:33:50.748Z,2.60
2022-08-19T19:36:18.187Z,3.08
2022-08-19T19:38:48.638Z,2.78
2022-08-19T19:41:18.746Z,2.55
2022-08-19T19:43:45.896Z,2.30
2022-08-19T19:46:16.384Z,2.70
2022-08-19T19:48:43.564Z,2.50
2022-08-19T19:51:11.113Z,2.42
2022-08-19T19:53:38.329Z,2.85
2022-08-19T19:56:05.974Z,2.50
2022-08-19T19:58:36.708Z,2.80
2022-08-19T20:01:09.711Z,2.60
2022-08-19T20:03:37.040Z,2.78
2022-08-19T20:06:04.189Z,2.63
2022-08-19T20:08:49.918Z,2.78
2022-08-19T20:11:34.520Z,2.90
2022-08-19T20:14:04.677Z,2.95
2022-08-19T20:16:32.322Z,3.47
2022-08-19T20:19:00.855Z,3.10
2022-08-19T20:21:32.268Z,3.20
2022-08-19T20:24:09.554Z,2.78
2022-08-19T20:26:37.099Z,2.47
2022-08-19T20:29:11.256Z,2.13
2022-08-19T20:31:59.384Z,2.10
2022-08-19T20:34:27.451Z,2.20
2022-08-19T20:36:54.256Z,2.47
2022-08-19T20:39:21.134Z,2.60
2022-08-19T20:41:48.770Z,2.40
2022-08-19T20:44:16.072Z,2.25
2022-08-19T20:46:42.856Z,2.60
2022-08-19T20:49:23.022Z,2.50
2022-08-19T20:51:54.523Z,2.15
2022-08-19T20:54:21.749Z,2.17
2022-08-19T20:56:48.491Z,2.70
2022-08-19T20:59:15.462Z,2.53
2022-08-19T21:01:42.618Z,2.90
2022-08-19T21:04:09.331Z,2.65
2022-08-19T21:06:38.123Z,2.75
2022-08-19T21:09:05.684Z,2.95
2022-08-19T21:11:32.823Z,2.50
2022-08-19T21:13:59.711Z,2.60
2022-08-19T21:16:26.795Z,2.42
2022-08-19T21:18:53.519Z,2.70
2022-08-19T21:21:20.714Z,2.80
2022-08-19T21:23:47.425Z,2.42
2022-08-19T21:26:14.169Z,2.45
2022-08-19T21:28:40.884Z,3.30
2022-08-19T21:31:14.011Z,2.90
2022-08-19T21:33:41.164Z,2.55
2022-08-19T21:36:08.531Z,2.88
2022-08-19T21:38:35.664Z,2.50
2022-08-19T21:41:06.208Z,2.58
2022-08-19T21:43:34.810Z,3.92
2022-08-19T21:46:01.805Z,3.05
2022-08-19T21:48:28.594Z,3.10
2022-08-19T21:50:55.720Z,2.60
2022-08-19T21:53:23.152Z,2.85
2022-08-19T21:55:53.549Z,2.78
2022-08-19T21:58:28.306Z,2.72
2022-08-19T22:00:58.630Z,2.92
2022-08-19T22:03:25.968Z,2.40
2022-08-19T22:05:53.132Z,2.83
2022-08-19T22:08:19.851Z,2.80
2022-08-19T22:10:46.893Z,2.75
2022-08-19T22:13:14.613Z,2.80
2022-08-19T22:15:42.466Z,2.78
2022-08-19T22:18:09.287Z,2.80
2022-08-19T22:20:36.694Z,3.65
2022-08-19T22:23:05.582Z,3.78
2022-08-19T22:25:35.810Z,3.03
2022-08-19T22:28:05.613Z,2.83
2022-08-19T22:30:34.450Z,3.25
2022-08-19T22:33:06.949Z,3.05
2022-08-19T22:35:37.437Z,2.70
2022-08-19T22:38:06.459Z,2.58
2022-08-19T22:40:36.443Z,2.90
2022-08-19T22:43:07.380Z,2.80
2022-08-19T22:45:36.205Z,2.42
2022-08-19T22:48:04.914Z,2.85
2022-08-19T22:50:31.659Z,3.30
2022-08-19T22:52:59.124Z,2.80
2022-08-19T22:55:27.208Z,3.20
2022-08-19T22:57:54.163Z,2.95
2022-08-19T23:00:23.243Z,3.25
2022-08-19T23:02:51.556Z,3.17
2022-08-19T23:05:22.024Z,3.17
2022-08-19T23:07:52.540Z,4.03
2022-08-19T23:10:26.541Z,3.33
2022-08-19T23:12:56.975Z,3.70
2022-08-19T23:15:26.927Z,3.60
2022-08-19T23:17:55.550Z,3.38
2022-08-19T23:20:27.188Z,3.20
2022-08-19T23:22:55.504Z,3.95
2022-08-19T23:25:26.670Z,3.33
2022-08-19T23:28:29.108Z,3.63
2022-08-19T23:30:56.142Z,3.40
2022-08-19T23:33:50.866Z,3.50
2022-08-19T23:36:16.913Z,3.28
2022-08-19T23:38:46.327Z,3.90
2022-08-19T23:41:14.343Z,4.55
2022-08-19T23:43:42.004Z,3.38
2022-08-19T23:46:11.847Z,3.72
2022-08-19T23:48:39.714Z,4.05
2022-08-19T23:51:10.392Z,3.72
2022-08-19T23:53:39.028Z,3.50
2022-08-19T23:56:07.384Z,3.78
2022-08-19T23:58:35.704Z,3.72
